createdAt,value
2023-05-07T00:05:58.710Z,28.8
2023-05-07T00:21:00.472Z,36
2023-05-07T00:36:02.255Z,25.2
2023-05-07T00:51:03.983Z,25.2
2023-05-07T01:06:05.725Z,18
2023-05-07T01:21:07.999Z,9
2023-05-07T01:36:09.778Z,5.4
2023-05-07T01:51:11.529Z,5.4
2023-05-07T02:06:13.237Z,3.6
2023-05-07T02:21:14.983Z,1.8
2023-05-07T02:36:16.765Z,1.8
2023-05-07T02:51:18.544Z,0
2023-05-07T03:06:20.334Z,0
2023-05-07T03:21:22.074Z,0
2023-05-07T03:36:23.891Z,0
2023-05-07T03:51:25.707Z,0
2023-05-07T04:06:27.422Z,0
2023-05-07T04:21:29.133Z,0
2023-05-07T04:36:30.801Z,0
2023-05-07T04:51:32.572Z,0
2023-05-07T05:06:34.336Z,0
2023-05-07T05:21:36.051Z,0
2023-05-07T05:36:37.752Z,0
2023-05-07T05:51:39.497Z,0
2023-05-07T06:06:41.198Z,0
2023-05-07T06:21:42.930Z,0
2023-05-07T06:36:44.705Z,0
2023-05-07T06:51:46.463Z,0
2023-05-07T07:06:48.185Z,0
2023-05-07T07:21:49.929Z,0
2023-05-07T07:36:51.620Z,0
2023-05-07T07:51:53.367Z,0
2023-05-07T08:06:55.121Z,0
2023-05-07T08:21:56.868Z,0
2023-05-07T08:36:58.610Z,0
2023-05-07T08:52:00.326Z,0
2023-05-07T09:07:02.007Z,0
2023-05-07T09:22:03.714Z,0
2023-05-07T09:37:05.429Z,0
2023-05-07T09:52:07.228Z,0
2023-05-07T10:07:09.039Z,0
2023-05-07T10:22:10.764Z,0
2023-05-07T10:37:12.460Z,0
2023-05-07T10:52:14.133Z,0
2023-05-07T11:07:15.909Z,0
2023-05-07T11:22:17.653Z,0
2023-05-07T11:37:19.359Z,0
2023-05-07T11:52:21.059Z,0
2023-05-07T12:07:22.753Z,0
2023-05-07T12:22:24.534Z,0
2023-05-07T12:37:26.375Z,0
2023-05-07T12:52:28.198Z,0
2023-05-07T13:07:30.831Z,1.8
2023-05-07T13:22:32.726Z,1.8
2023-05-07T13:37:34.446Z,3.6
2023-05-07T13:52:36.149Z,3.6
2023-05-07T14:07:37.837Z,5.4
2023-05-07T14:22:39.537Z,7.2
2023-05-07T14:37:41.224Z,7.2
2023-05-07T14:52:42.976Z,10.8
2023-05-07T15:07:45.674Z,14.4
2023-05-07T15:22:48.005Z,16.2
2023-05-07T15:37:49.765Z,16.2
2023-05-07T15:52:51.475Z,21.6
2023-05-07T16:07:53.214Z,27
2023-05-07T16:22:54.947Z,23.4
2023-05-07T16:37:56.670Z,21.6
2023-05-07T16:52:58.385Z,23.4
2023-05-07T17:08:00.121Z,25.2
2023-05-07T17:23:01.853Z,30.6
2023-05-07T17:38:03.533Z,34.2
2023-05-07T17:53:05.305Z,21.6
2023-05-07T18:08:07.059Z,23.4
2023-05-07T18:23:08.782Z,30.6
2023-05-07T18:38:10.472Z,48.6
2023-05-07T18:53:12.240Z,37.8
2023-05-07T19:08:13.988Z,34.2
2023-05-07T19:23:15.684Z,39.6
2023-05-07T19:38:17.472Z,27
2023-05-07T19:53:19.190Z,36
2023-05-07T20:08:20.929Z,46.8
2023-05-07T20:23:22.695Z,52.2
2023-05-07T20:38:24.428Z,72
2023-05-07T20:53:26.113Z,45
2023-05-07T21:08:27.835Z,54
2023-05-07T21:23:29.600Z,48.6
2023-05-07T21:38:31.382Z,45
2023-05-07T21:53:33.148Z,108
2023-05-07T22:08:34.848Z,34.2
2023-05-07T22:23:36.634Z,55.8
2023-05-07T22:38:38.387Z,55.8
2023-05-07T22:53:40.146Z,45
2023-05-07T23:08:41.924Z,28.8
2023-05-07T23:23:43.602Z,70.2
2023-05-07T23:38:45.348Z,138.6
2023-05-07T23:53:47.092Z,41.4
